Râmnicu Vâlcea, România

03:42 PM EEST on octombrie 24, 2014 (GMT +0300)
Sibiu | Change Station
CLOSE
Current Station
Aeroport
Location: Sibiu,
Elevation: 1453 ft
Nearby Weather Stations

Elev 1453 ft 45.79 °N, 24.09 °E | Updated 12 minutes ago

Scattered Clouds
Nori risipiţi
55 °F
Feels Like 55 °F
N
12
Vânt variabil Vânt from ESE

astăzi
High -- | Low -- °F
--% Chance of Precip.
Ieri
High -- | Low -- °F
Precip. -- inch
7:49 AM 6:22 PM
Lună Nouă, 0% visible
Presiunea 29.98 inch
Vizibilitatea 6.2 mile
Nori Nori risipiţi 5200 ft
Punctul de rouă 39 °F
Umiditatea 54%
Precipitaţii 0.00 inch
Adâncimea zăpezii Not available.
UV 2 out of 12
Pollen Not available.
Calitatea aerului Not available.
Flu Activity Not available.
METAR LRSB 241230Z 12010KT 9999 SCT052 13/04 Q1015

More Conditions Fewer Conditions

Presiunea 29.98 inch
Vizibilitatea 6.2 mile
Nori Nori risipiţi 5200 ft
Punctul de rouă 39 °F
Umiditatea 54%
Precipitaţii 0.00 inch
Adâncimea zăpezii Not available.
UV 2 out of 12
Pollen Not available.
Calitatea aerului Not available.
Flu Activity Not available.
METAR LRSB 241230Z 12010KT 9999 SCT052 13/04 Q1015

More Conditions Fewer Conditions

10-Day Weather Forecast

Almanac

Astronomie

Oct. 24, 2014 Răsărit Apus
Timpul Actual 7:49 AM EEST 6:22 PM EEST
Crepusculul Civil 7:19 AM EEST 6:52 PM EEST
Crepusculul nautic 6:45 AM EEST 7:27 PM EEST
Răsărit Astronomic 6:11 AM EEST 8:01 PM EEST
Luna 8:10 AM EEST 6:48 PM EEST
Durata zilei lumină 11h 33m
Lungimea zilei
10h 33m
Tomorrow will be 2m 57s shorter.
Lună Nouă, 0% of the Moon is Illuminated
astăzi
Lună Nouă
Oct 30
Primul pătrar
Nov 6
Lună plină
Nov 14
Ultimul pătrar
Nov 22
New

Yesterday's Extremes

Country Highs Country Lows

Community

WunderPhotos

Upload Photos

1,764,544 photos uploaded!

Nearby

Calitatea aerului

Not available.

Adâncimea zapezii

Not available.

Earthquake Activity

Oraş Distance Mag. Time & Date
No recent earthquake activity has been reported nearby.
Minimum magnitude displayed is 2.5.

Coastal Water Temperatures

Locul Temperatura
No Stations Reporting

Nearby Weather Stations